createdAt,value
2018-08-24T06:01:35.710Z,99.99
2018-08-24T06:02:28.199Z,99.99
2018-08-24T06:03:26.630Z,99.99
2018-08-24T06:04:29.043Z,99.99
2018-08-24T06:05:30.030Z,99.99
2018-08-24T06:07:32.257Z,99.99
2018-08-24T06:08:30.033Z,99.99
2018-08-24T06:09:28.364Z,99.99
2018-08-24T06:10:35.766Z,99.99
2018-08-24T06:11:28.610Z,99.99
2018-08-24T06:12:30.031Z,99.99
2018-08-24T06:13:28.149Z,99.99
2018-08-24T06:14:29.623Z,99.99
2018-08-24T06:15:27.729Z,99.99
2018-08-24T06:16:26.276Z,99.99
2018-08-24T06:17:26.573Z,99.99
2018-08-24T06:18:26.537Z,99.15
2018-08-24T06:19:26.804Z,99.40
2018-08-24T06:20:27.002Z,99.98
2018-08-24T06:21:27.116Z,99.99
2018-08-24T06:22:27.282Z,99.99
2018-08-24T06:23:28.358Z,99.98
2018-08-24T06:24:27.557Z,97.28
2018-08-24T06:25:27.816Z,95.17
2018-08-24T06:26:28.332Z,96.70
2018-08-24T06:27:28.214Z,96.61
2018-08-24T06:30:13.876Z,97.71
2018-08-24T06:31:14.345Z,96.37
2018-08-24T06:33:17.564Z,97.33
2018-08-24T06:34:16.255Z,97.04
2018-08-24T06:35:27.619Z,97.67
2018-08-24T06:37:28.491Z,95.94
2018-08-24T06:40:00.106Z,95.45
2018-08-24T06:41:01.886Z,94.59
2018-08-24T06:42:07.499Z,94.01
2018-08-24T06:43:00.100Z,93.43
2018-08-24T06:45:03.281Z,93.05
2018-08-24T06:46:04.848Z,94.01
2018-08-24T07:00:39.052Z,89.09
2018-08-24T07:01:41.958Z,89.39
2018-08-24T07:02:40.156Z,88.56
2018-08-24T07:03:39.645Z,87.60
2018-08-24T07:04:38.441Z,86.96
2018-08-24T07:05:40.795Z,86.00
2018-08-24T07:07:43.160Z,85.52
2018-08-24T07:08:39.822Z,84.94
2018-08-24T07:09:39.825Z,84.55
2018-08-24T07:10:41.375Z,84.65
2018-08-24T07:11:39.785Z,84.46
2018-08-24T07:12:37.187Z,83.69
2018-08-24T07:14:37.674Z,81.60
2018-08-24T07:15:37.868Z,81.41
2018-08-24T07:16:37.907Z,79.10
2018-08-24T07:17:37.966Z,79.29
2018-08-24T07:18:38.230Z,79.52
2018-08-24T07:19:38.615Z,80.00
2018-08-24T07:20:38.465Z,78.85
2018-08-24T07:21:38.959Z,78.31
2018-08-24T07:22:39.040Z,77.92
2018-08-24T07:23:38.970Z,77.92
2018-08-24T07:24:39.168Z,77.15
2018-08-24T07:25:39.972Z,74.35
2018-08-24T07:26:39.513Z,75.51
2018-08-24T07:27:39.791Z,76.18
2018-08-24T07:28:39.903Z,76.28
2018-08-24T07:29:40.073Z,77.05
2018-08-24T07:30:40.171Z,76.67
2018-08-24T07:31:40.312Z,75.22
2018-08-24T07:32:40.521Z,71.16
2018-08-24T07:33:40.714Z,70.97
2018-08-24T07:34:40.983Z,72.36
2018-08-24T07:35:41.044Z,72.26
2018-08-24T07:36:41.176Z,70.14
2018-08-24T07:37:41.295Z,70.32
2018-08-24T07:38:41.719Z,67.85
2018-08-24T07:39:41.751Z,68.72
2018-08-24T07:40:41.983Z,68.62
2018-08-24T07:41:42.251Z,67.75
2018-08-24T07:42:42.384Z,67.66
2018-08-24T07:43:42.952Z,68.52
2018-08-24T07:44:43.135Z,67.17
2018-08-24T07:45:43.313Z,67.36
2018-08-24T07:46:43.123Z,67.01
2018-08-24T07:47:43.346Z,67.49
2018-08-24T07:48:43.802Z,65.53
2018-08-24T07:49:43.741Z,65.82
2018-08-24T07:50:43.975Z,62.53
2018-08-24T07:51:44.769Z,61.18
2018-08-24T07:52:44.284Z,62.50
2018-08-24T07:53:44.678Z,63.37
2018-08-24T07:54:45.089Z,63.53
2018-08-24T07:55:45.077Z,65.37
2018-08-24T07:56:45.367Z,64.59
2018-08-24T07:57:45.353Z,62.15
2018-08-24T07:58:45.676Z,62.05
2018-08-24T07:59:45.944Z,62.63
2018-08-24T08:00:45.963Z,63.60
2018-08-24T08:01:46.151Z,63.70
2018-08-24T08:02:46.374Z,65.30
2018-08-24T08:03:46.706Z,67.17
2018-08-24T08:04:46.757Z,65.30
2018-08-24T08:05:46.829Z,63.28
2018-08-24T08:06:47.116Z,63.37
2018-08-24T08:07:47.012Z,62.38
2018-08-24T08:08:47.270Z,62.28
2018-08-24T08:09:47.469Z,61.41
2018-08-24T08:10:47.471Z,61.41
2018-08-24T08:11:47.680Z,60.83
2018-08-24T08:12:47.827Z,60.26
2018-08-24T08:13:47.995Z,60.35
2018-08-24T08:14:48.343Z,58.91
2018-08-24T08:15:48.530Z,59.87
2018-08-24T08:16:48.631Z,59.61
2018-08-24T08:17:48.870Z,59.87
2018-08-24T08:18:49.011Z,60.35
2018-08-24T08:19:49.032Z,59.87
2018-08-24T08:20:49.289Z,59.68
2018-08-24T08:21:49.442Z,59.20
2018-08-24T08:22:49.679Z,59.61
2018-08-24T08:23:49.872Z,58.94
2018-08-24T08:24:50.094Z,59.39
2018-08-24T08:25:50.066Z,59.97
2018-08-24T08:26:50.437Z,60.26
2018-08-24T08:27:50.640Z,59.87
2018-08-24T08:28:50.874Z,59.68
2018-08-24T08:29:51.084Z,59.78
2018-08-24T08:30:51.347Z,59.87
2018-08-24T08:31:51.402Z,59.78
2018-08-24T08:32:51.938Z,60.64
2018-08-24T08:33:51.790Z,61.32
2018-08-24T08:34:51.821Z,60.71
2018-08-24T08:35:52.110Z,59.94
2018-08-24T08:36:52.474Z,60.39
2018-08-24T08:37:52.778Z,60.80
2018-08-24T08:38:52.978Z,60.30
2018-08-24T08:39:52.808Z,61.45
2018-08-24T08:40:53.119Z,61.35
2018-08-24T08:41:53.245Z,61.35
2018-08-24T08:42:53.413Z,60.49
2018-08-24T08:43:53.773Z,60.68
2018-08-24T08:44:53.705Z,60.68
2018-08-24T08:45:53.820Z,60.87
2018-08-24T08:46:54.160Z,61.35
2018-08-24T08:47:54.032Z,61.93
2018-08-24T08:48:54.509Z,61.48
2018-08-24T08:49:54.918Z,62.35
2018-08-24T08:50:54.891Z,61.74
2018-08-24T08:51:55.186Z,62.54
2018-08-24T08:52:55.299Z,63.12
2018-08-24T08:53:55.252Z,63.70
2018-08-24T08:54:55.581Z,63.60
2018-08-24T08:55:55.566Z,63.41
2018-08-24T08:56:56.077Z,63.21
2018-08-24T08:57:56.802Z,62.80
2018-08-24T08:58:56.121Z,62.80
2018-08-24T08:59:56.091Z,62.22
2018-08-24T09:00:56.263Z,62.32
2018-08-24T09:01:56.664Z,62.70
2018-08-24T09:02:57.005Z,62.90
2018-08-24T09:03:57.084Z,62.99
2018-08-24T09:04:57.267Z,63.18
2018-08-24T09:05:57.505Z,62.90
2018-08-24T09:06:57.994Z,62.73
2018-08-24T09:07:57.783Z,63.18
2018-08-24T09:08:58.092Z,62.80
2018-08-24T09:09:58.222Z,62.93
2018-08-24T09:10:58.495Z,62.73
2018-08-24T09:11:58.544Z,63.31
2018-08-24T09:12:58.757Z,63.21
2018-08-24T09:13:59.063Z,64.08
2018-08-24T09:14:59.277Z,63.98
2018-08-24T09:15:59.255Z,65.50
2018-08-24T09:16:59.856Z,65.50
2018-08-24T09:17:59.700Z,65.88
2018-08-24T09:19:00.693Z,67.13
2018-08-24T09:20:00.327Z,69.70
2018-08-24T09:21:00.672Z,69.22
2018-08-24T09:22:00.665Z,68.54
2018-08-24T09:23:05.006Z,69.12
2018-08-24T09:24:00.783Z,69.76
2018-08-24T09:25:02.083Z,71.88
2018-08-24T09:26:03.029Z,72.07
2018-08-24T09:27:02.393Z,74.09
2018-08-24T09:29:01.918Z,74.15
2018-08-24T09:30:02.061Z,74.82
2018-08-24T09:31:02.693Z,75.21
2018-08-24T09:32:02.696Z,75.02
2018-08-24T09:33:03.395Z,73.28
2018-08-24T09:34:03.325Z,75.79
2018-08-24T09:35:03.789Z,77.61
2018-08-24T09:36:02.982Z,77.42
2018-08-24T09:37:03.410Z,78.96
2018-08-24T09:38:03.534Z,80.21
2018-08-24T09:39:32.082Z,79.15
2018-08-24T09:40:04.139Z,80.30
2018-08-24T09:42:49.422Z,80.88
2018-08-24T09:43:49.557Z,81.27
2018-08-24T09:44:50.458Z,81.75
2018-08-24T09:45:51.078Z,81.65
2018-08-24T09:46:51.121Z,80.88
2018-08-24T09:47:52.565Z,82.71
2018-08-24T09:48:51.191Z,80.98
2018-08-24T09:49:51.759Z,80.88
2018-08-24T09:51:51.011Z,79.92
2018-08-24T09:52:50.646Z,81.07
2018-08-24T09:53:52.378Z,81.27
2018-08-24T09:55:50.869Z,77.96
2018-08-24T09:56:49.207Z,78.34
2018-08-24T09:57:49.424Z,79.88
2018-08-24T09:58:49.593Z,78.73
2018-08-24T09:59:49.864Z,79.11
2018-08-24T10:00:49.913Z,79.79
2018-08-24T10:01:49.967Z,78.92
2018-08-24T10:02:50.291Z,79.69
2018-08-24T10:03:50.136Z,81.17
2018-08-24T10:05:50.565Z,83.58
2018-08-24T10:06:51.117Z,82.14
2018-08-24T10:07:51.058Z,82.90
2018-08-24T10:08:51.170Z,81.30
2018-08-24T10:09:51.543Z,81.70
2018-08-24T10:10:51.545Z,83.14
2018-08-24T10:11:51.992Z,82.27
2018-08-24T10:12:52.024Z,80.44
2018-08-24T10:13:52.596Z,79.96
2018-08-24T10:14:52.488Z,81.21
2018-08-24T10:15:52.489Z,80.92
2018-08-24T10:16:52.672Z,80.44
2018-08-24T10:17:53.502Z,78.42
2018-08-24T10:18:53.651Z,80.73
2018-08-24T10:19:53.539Z,82.37
2018-08-24T10:20:54.174Z,80.44
2018-08-24T10:21:54.142Z,79.82
2018-08-24T10:22:54.247Z,80.60
2018-08-24T10:23:54.711Z,80.11
2018-08-24T10:24:54.374Z,80.69
2018-08-24T10:25:54.727Z,80.98
2018-08-24T10:26:54.822Z,80.54
2018-08-24T10:27:55.394Z,78.81
2018-08-24T10:28:56.447Z,78.42
2018-08-24T10:29:55.419Z,77.75
2018-08-24T10:30:55.510Z,77.98
2018-08-24T10:31:55.952Z,77.59
2018-08-24T10:32:55.517Z,76.73
2018-08-24T10:33:55.940Z,75.38
2018-08-24T10:34:56.176Z,74.13
2018-08-24T10:35:55.953Z,74.90
2018-08-24T10:36:56.030Z,76.63
2018-08-24T10:37:56.434Z,77.50
2018-08-24T10:38:57.124Z,77.69
2018-08-24T10:39:56.723Z,77.88
2018-08-24T10:40:57.191Z,77.50
2018-08-24T10:41:57.201Z,75.67
2018-08-24T10:42:57.382Z,77.31
2018-08-24T10:43:57.911Z,74.71
2018-08-24T10:44:58.657Z,73.78
2018-08-24T10:45:59.660Z,75.03
2018-08-24T10:47:01.942Z,76.09
2018-08-24T10:47:58.421Z,75.13
2018-08-24T10:50:51.914Z,74.71
2018-08-24T10:52:14.606Z,75.86
2018-08-24T10:52:57.486Z,75.99
2018-08-24T10:53:50.821Z,76.67
2018-08-24T10:57:01.139Z,74.16
2018-08-24T10:59:21.933Z,76.09
2018-08-24T10:59:53.733Z,76.48
2018-08-24T11:01:53.919Z,74.36
2018-08-24T11:02:52.197Z,75.51
2018-08-24T11:03:54.945Z,74.26
2018-08-24T11:04:51.021Z,75.19
2018-08-24T11:06:50.306Z,74.86
2018-08-24T11:07:50.826Z,76.82
2018-08-24T11:08:52.151Z,75.44
2018-08-24T11:11:41.679Z,74.76
2018-08-24T11:13:41.159Z,73.61
2018-08-24T11:14:44.131Z,73.32
2018-08-24T11:16:11.702Z,74.86
2018-08-24T11:16:39.845Z,75.38
2018-08-24T11:17:56.597Z,76.76
2018-08-24T11:18:43.795Z,75.32
2018-08-24T11:20:07.529Z,73.10
2018-08-24T11:20:45.439Z,71.56
2018-08-24T11:21:53.065Z,72.05
2018-08-24T11:22:40.171Z,71.50
2018-08-24T11:23:40.322Z,72.56
2018-08-24T11:25:42.724Z,70.73
2018-08-24T11:27:41.266Z,68.65
2018-08-24T11:29:41.133Z,66.94
2018-08-24T11:30:39.620Z,68.68
2018-08-24T11:31:39.869Z,68.33
2018-08-24T11:32:39.838Z,67.36
2018-08-24T11:38:06.887Z,68.49
2018-08-24T11:41:13.532Z,67.14
2018-08-24T11:42:10.754Z,64.18
2018-08-24T11:43:11.618Z,62.92
2018-08-24T11:44:10.004Z,61.60
2018-08-24T11:45:09.621Z,62.01
2018-08-24T11:46:08.163Z,61.53
2018-08-24T11:47:07.709Z,60.53
2018-08-24T11:48:08.057Z,62.56
2018-08-24T11:49:08.809Z,60.82
2018-08-24T11:50:08.267Z,60.91
2018-08-24T11:51:09.603Z,58.65
2018-08-24T11:52:10.558Z,55.18
2018-08-24T11:53:10.075Z,54.36
2018-08-24T11:54:10.658Z,53.81
2018-08-24T11:55:09.180Z,52.67
2018-08-24T11:56:09.886Z,51.50
2018-08-24T11:57:11.371Z,49.66
2018-08-24T11:58:10.184Z,49.78
2018-08-24T11:59:10.359Z,49.92
2018-08-24T12:00:10.703Z,47.73
2018-08-24T12:01:10.409Z,46.37
2018-08-24T12:02:11.779Z,47.46
2018-08-24T12:03:10.741Z,45.95
2018-08-24T12:04:10.920Z,46.40
2018-08-24T12:05:11.107Z,48.05
2018-08-24T12:06:11.494Z,48.32
2018-08-24T12:07:12.570Z,48.03
2018-08-24T12:08:13.753Z,49.27
2018-08-24T12:09:12.221Z,51.38
2018-08-24T12:10:12.740Z,49.76
2018-08-24T12:11:12.930Z,49.32
2018-08-24T12:12:14.856Z,49.05
2018-08-24T12:13:13.344Z,47.78
2018-08-24T12:14:20.051Z,46.13
2018-08-24T12:15:13.741Z,46.51
2018-08-24T12:16:13.625Z,46.56
2018-08-24T12:17:14.684Z,45.67
2018-08-24T12:18:15.585Z,45.94
2018-08-24T12:19:13.705Z,46.51
2018-08-24T12:20:13.692Z,46.50
2018-08-24T12:21:13.860Z,45.47
2018-08-24T12:22:14.070Z,46.32
2018-08-24T12:23:14.476Z,45.91
2018-08-24T12:24:14.666Z,46.86
2018-08-24T12:25:14.930Z,47.66
2018-08-24T12:26:14.971Z,48.05
2018-08-24T12:27:15.215Z,47.88
2018-08-24T12:28:15.206Z,45.94
2018-08-24T12:29:15.419Z,46.57
2018-08-24T12:30:15.581Z,46.35
2018-08-24T12:31:15.819Z,47.42
2018-08-24T12:32:16.001Z,46.06
2018-08-24T12:33:16.724Z,46.57
2018-08-24T12:34:16.493Z,46.37
2018-08-24T12:35:16.684Z,47.54
2018-08-24T12:36:16.916Z,46.42
2018-08-24T12:37:17.011Z,46.11
2018-08-24T12:38:17.170Z,45.72
2018-08-24T12:39:17.542Z,46.50
2018-08-24T12:40:17.574Z,45.86
2018-08-24T12:41:18.123Z,45.15
2018-08-24T12:42:19.242Z,44.96
2018-08-24T12:43:18.499Z,44.38
2018-08-24T12:44:18.625Z,44.98
2018-08-24T12:45:18.982Z,44.59
2018-08-24T12:46:18.665Z,45.52
2018-08-24T12:47:18.835Z,44.45
2018-08-24T12:48:19.030Z,45.45
2018-08-24T12:49:19.258Z,45.60
2018-08-24T12:50:19.368Z,45.67
2018-08-24T12:51:19.599Z,46.47
2018-08-24T12:52:19.719Z,45.54
2018-08-24T12:53:19.959Z,42.76
2018-08-24T12:54:20.141Z,41.89
2018-08-24T12:55:20.478Z,41.42
2018-08-24T12:56:20.543Z,41.44
2018-08-24T12:57:20.614Z,40.55
2018-08-24T12:58:20.920Z,40.13
2018-08-24T12:59:23.444Z,41.11
2018-08-24T13:00:21.318Z,40.42
2018-08-24T13:01:21.471Z,39.88
2018-08-24T13:02:21.696Z,38.34
2018-08-24T13:03:22.027Z,38.45
2018-08-24T13:04:22.762Z,37.48
2018-08-24T13:05:22.276Z,37.01
2018-08-24T13:06:22.355Z,37.32
2018-08-24T13:07:22.665Z,35.48
2018-08-24T13:08:22.873Z,35.32
2018-08-24T13:09:23.051Z,34.84
2018-08-24T13:10:23.157Z,33.20
2018-08-24T13:11:23.406Z,32.71
2018-08-24T13:12:23.502Z,32.63
2018-08-24T13:13:23.728Z,31.94
2018-08-24T13:14:24.105Z,31.06
2018-08-24T13:15:24.322Z,30.98
2018-08-24T13:16:24.392Z,30.49
2018-08-24T13:17:24.598Z,30.19
2018-08-24T13:18:24.905Z,30.55
2018-08-24T13:19:24.872Z,30.94
2018-08-24T13:20:25.172Z,31.94
2018-08-24T13:21:25.453Z,31.37
2018-08-24T13:22:25.692Z,31.54
2018-08-24T13:23:25.817Z,31.99
2018-08-24T13:24:25.897Z,32.65
2018-08-24T13:25:26.101Z,34.01
2018-08-24T13:26:26.277Z,34.13
2018-08-24T13:27:26.571Z,33.67
2018-08-24T13:28:26.760Z,33.07
2018-08-24T13:29:26.774Z,32.63
2018-08-24T13:30:27.077Z,34.24
2018-08-24T13:31:27.191Z,34.05
2018-08-24T13:32:27.503Z,35.38
2018-08-24T13:33:27.595Z,35.00
2018-08-24T13:34:27.784Z,35.00
2018-08-24T13:35:28.046Z,35.57
2018-08-24T13:36:28.074Z,36.53
2018-08-24T13:37:28.434Z,36.55
2018-08-24T13:38:28.492Z,36.51
2018-08-24T13:39:28.747Z,38.03
2018-08-24T13:40:28.886Z,39.86
2018-08-24T13:41:29.214Z,40.60
2018-08-24T13:42:29.412Z,41.36
2018-08-24T13:43:29.578Z,39.88
2018-08-24T13:44:29.705Z,40.92
2018-08-24T13:45:29.867Z,41.08
2018-08-24T13:46:30.007Z,43.00
2018-08-24T13:47:30.348Z,45.10
2018-08-24T13:48:30.446Z,47.31
2018-08-24T13:49:30.564Z,47.67
2018-08-24T13:50:30.772Z,47.36
2018-08-24T13:51:30.825Z,45.65
2018-08-24T13:52:31.187Z,44.13
2018-08-24T13:53:31.257Z,42.74
2018-08-24T13:54:31.521Z,41.20
2018-08-24T13:55:31.683Z,40.44
2018-08-24T13:56:31.921Z,40.15
2018-08-24T13:57:32.189Z,39.76
2018-08-24T13:58:32.218Z,39.29
2018-08-24T13:59:32.485Z,39.69
2018-08-24T14:00:32.498Z,39.04
2018-08-24T14:01:32.725Z,38.38
2018-08-24T14:02:32.891Z,37.23
2018-08-24T14:03:32.973Z,36.96
2018-08-24T14:04:33.252Z,36.55
2018-08-24T14:05:33.473Z,35.98
2018-08-24T14:06:33.533Z,36.51
2018-08-24T14:07:33.749Z,35.72
2018-08-24T14:08:34.464Z,35.92
2018-08-24T14:09:34.110Z,35.14
2018-08-24T14:10:34.328Z,34.65
2018-08-24T14:11:34.598Z,35.53
2018-08-24T14:12:34.689Z,34.77
2018-08-24T14:13:35.058Z,35.16
2018-08-24T14:14:35.046Z,34.58
2018-08-24T14:15:35.131Z,34.00
2018-08-24T14:16:35.357Z,34.26
2018-08-24T14:17:35.607Z,34.63
2018-08-24T14:18:35.854Z,35.88
2018-08-24T14:19:36.010Z,35.12
2018-08-24T14:20:36.035Z,35.31
2018-08-24T14:21:36.430Z,35.04
2018-08-24T14:22:36.432Z,34.00
2018-08-24T14:23:36.804Z,33.41
2018-08-24T14:24:36.828Z,34.29
2018-08-24T14:25:37.152Z,33.69
2018-08-24T14:26:37.339Z,33.50
2018-08-24T14:27:37.512Z,33.41
2018-08-24T14:28:37.655Z,32.45
2018-08-24T14:29:37.814Z,33.30
2018-08-24T14:30:37.990Z,32.63
2018-08-24T14:31:38.233Z,32.91
2018-08-24T14:32:38.268Z,32.42
2018-08-24T14:33:38.590Z,33.12
2018-08-24T14:34:38.747Z,31.84
2018-08-24T14:35:39.004Z,32.03
2018-08-24T14:36:39.225Z,32.23
2018-08-24T14:37:39.302Z,32.42
2018-08-24T14:38:39.435Z,33.73
2018-08-24T14:39:39.589Z,34.59
2018-08-24T14:40:39.896Z,35.55
2018-08-24T14:41:40.049Z,35.94
2018-08-24T14:42:40.570Z,35.46
2018-08-24T14:43:40.375Z,35.16
2018-08-24T14:44:40.617Z,34.79
2018-08-24T14:45:40.761Z,33.31
2018-08-24T14:46:40.904Z,33.02
2018-08-24T14:47:41.151Z,33.20
2018-08-24T14:48:41.308Z,34.64
2018-08-24T14:49:41.530Z,34.43
2018-08-24T14:50:41.670Z,33.65
2018-08-24T14:51:41.820Z,33.11
2018-08-24T14:52:42.028Z,32.42
2018-08-24T14:53:42.152Z,33.12
2018-08-24T14:54:42.339Z,34.16
2018-08-24T14:55:42.512Z,33.18
2018-08-24T14:56:42.631Z,33.17
2018-08-24T14:57:42.892Z,33.85
2018-08-24T14:58:43.057Z,33.78
2018-08-24T14:59:43.266Z,32.34
2018-08-24T15:00:43.556Z,32.02
2018-08-24T15:01:43.595Z,32.39
2018-08-24T15:02:43.829Z,32.18
2018-08-24T15:03:43.979Z,33.62
2018-08-24T15:04:44.210Z,33.99
2018-08-24T15:05:44.375Z,35.06
2018-08-24T15:06:44.628Z,34.95
2018-08-24T15:07:44.725Z,34.85
2018-08-24T15:08:45.123Z,34.97
2018-08-24T15:09:45.121Z,35.35
2018-08-24T15:10:45.482Z,34.58
2018-08-24T15:11:45.368Z,34.97
2018-08-24T15:12:45.604Z,35.05
2018-08-24T15:13:45.911Z,35.71
2018-08-24T15:14:45.999Z,36.08
2018-08-24T15:15:46.140Z,36.95
2018-08-24T15:16:46.408Z,37.32
2018-08-24T15:17:46.581Z,37.41
2018-08-24T15:18:46.919Z,37.51
2018-08-24T15:19:46.891Z,37.61
2018-08-24T15:20:47.197Z,37.32
2018-08-24T15:21:47.275Z,37.13
2018-08-24T15:22:47.454Z,37.03
2018-08-24T15:23:47.695Z,36.35
2018-08-24T15:24:47.820Z,35.48
2018-08-24T15:26:48.196Z,35.69
2018-08-24T15:27:48.377Z,35.77
2018-08-24T15:28:48.616Z,36.06
2018-08-24T15:29:48.725Z,35.77
2018-08-24T15:30:48.961Z,35.67
2018-08-24T15:31:48.951Z,35.85
2018-08-24T15:32:49.513Z,35.85
2018-08-24T15:33:49.300Z,36.12
2018-08-24T15:34:49.686Z,36.32
2018-08-24T15:35:49.844Z,36.43
2018-08-24T15:36:49.948Z,36.90
2018-08-24T15:37:50.261Z,36.80
2018-08-24T15:38:50.425Z,37.09
2018-08-24T15:39:50.479Z,37.28
2018-08-24T15:40:50.603Z,37.85
2018-08-24T15:41:50.846Z,38.91
2018-08-24T15:42:50.968Z,38.99
2018-08-24T15:43:51.287Z,39.49
2018-08-24T15:44:51.385Z,39.95
2018-08-24T15:45:52.028Z,39.88
2018-08-24T15:46:51.704Z,39.67
2018-08-24T15:47:51.874Z,39.37
2018-08-24T15:48:51.988Z,39.28
2018-08-24T15:49:52.182Z,39.37
2018-08-24T15:50:52.393Z,39.29
2018-08-24T15:51:52.567Z,39.28
2018-08-24T15:52:52.769Z,39.95
2018-08-24T15:53:52.844Z,40.25
2018-08-24T15:54:53.032Z,40.15
2018-08-24T15:55:53.277Z,41.11
2018-08-24T15:56:53.510Z,40.92
2018-08-24T15:57:53.646Z,39.95
2018-08-24T15:58:53.761Z,39.47
2018-08-24T15:59:54.016Z,39.28
2018-08-24T16:00:54.093Z,39.76
2018-08-24T16:01:54.380Z,39.76
2018-08-24T16:02:54.571Z,39.18
2018-08-24T16:03:54.720Z,38.21
2018-08-24T16:04:54.973Z,38.50
2018-08-24T16:05:55.175Z,38.60
2018-08-24T16:06:55.318Z,38.02
2018-08-24T16:07:55.522Z,37.26
2018-08-24T16:08:55.595Z,37.07
2018-08-24T16:09:55.760Z,37.07
2018-08-24T16:10:56.020Z,37.24
2018-08-24T16:11:56.129Z,37.44
2018-08-24T16:12:56.293Z,38.31
2018-08-24T16:13:56.545Z,38.41
2018-08-24T16:14:56.681Z,39.06
2018-08-24T16:15:56.754Z,39.64
2018-08-24T16:16:57.081Z,38.58
2018-08-24T16:17:57.299Z,37.52
2018-08-24T16:18:57.347Z,37.32
2018-08-24T16:19:57.657Z,37.70
2018-08-24T16:20:57.727Z,38.18
2018-08-24T16:21:58.010Z,37.60
2018-08-24T16:22:58.065Z,37.70
2018-08-24T16:23:58.305Z,38.28
2018-08-24T16:24:58.457Z,38.46
2018-08-24T16:25:58.647Z,37.67
2018-08-24T16:26:58.760Z,38.25
2018-08-24T16:27:58.849Z,37.87
2018-08-24T16:28:59.163Z,38.45
2018-08-24T16:29:59.198Z,38.64
2018-08-24T16:30:59.430Z,38.83
2018-08-24T16:31:59.648Z,39.22
2018-08-24T16:32:59.780Z,38.93
2018-08-24T16:33:59.973Z,38.83
2018-08-24T16:35:00.241Z,39.03
2018-08-24T16:36:00.444Z,38.81
2018-08-24T16:37:00.585Z,38.83
2018-08-24T16:38:00.614Z,39.11
2018-08-24T16:39:00.724Z,39.59
2018-08-24T16:40:00.996Z,38.81
2018-08-24T16:41:01.240Z,39.20
2018-08-24T16:42:01.321Z,39.59
2018-08-24T16:43:01.448Z,39.78
2018-08-24T16:44:01.700Z,39.69
2018-08-24T16:45:01.784Z,39.95
2018-08-24T16:46:02.138Z,40.05
2018-08-24T16:47:02.332Z,40.05
2018-08-24T16:48:02.570Z,41.02
2018-08-24T16:49:02.593Z,40.44
2018-08-24T16:50:02.874Z,40.34
2018-08-24T16:51:02.958Z,40.92
2018-08-24T16:52:03.189Z,40.53
2018-08-24T16:53:03.245Z,40.82
2018-08-24T16:54:03.537Z,40.70
2018-08-24T16:55:04.097Z,40.82
2018-08-24T16:56:03.872Z,40.72
2018-08-24T16:57:04.093Z,40.63
2018-08-24T16:58:04.343Z,40.92
2018-08-24T16:59:04.447Z,41.19
2018-08-24T17:00:04.669Z,41.30
2018-08-24T17:01:04.662Z,41.57
2018-08-24T17:02:04.824Z,41.19
2018-08-24T17:03:05.218Z,41.19
2018-08-24T17:04:05.215Z,41.38
2018-08-24T17:05:05.488Z,41.28
2018-08-24T17:06:05.699Z,40.90
2018-08-24T17:07:05.816Z,41.67
2018-08-24T17:08:06.016Z,41.57
2018-08-24T17:09:06.180Z,41.77
2018-08-24T17:10:06.287Z,40.99
2018-08-24T17:11:06.506Z,41.09
2018-08-24T17:12:06.679Z,41.57
2018-08-24T17:13:06.794Z,42.25
2018-08-24T17:14:07.000Z,41.38
2018-08-24T17:15:07.253Z,41.38
2018-08-24T17:16:07.427Z,41.38
2018-08-24T17:17:07.537Z,40.88
2018-08-24T17:18:07.834Z,40.88
2018-08-24T17:19:07.873Z,40.97
2018-08-24T17:20:08.034Z,41.17
2018-08-24T17:21:08.269Z,41.27
2018-08-24T17:22:08.364Z,41.07
2018-08-24T17:23:08.582Z,40.59
2018-08-24T17:24:08.604Z,40.69
2018-08-24T17:25:08.973Z,40.78
2018-08-24T17:26:09.175Z,41.27
2018-08-24T17:27:09.325Z,41.07
2018-08-24T17:28:09.454Z,41.46
2018-08-24T17:29:09.690Z,41.84
2018-08-24T17:30:09.987Z,42.23
2018-08-24T17:31:09.937Z,42.03
2018-08-24T17:32:10.282Z,42.23
2018-08-24T17:33:10.198Z,41.27
2018-08-24T17:34:10.473Z,40.97
2018-08-24T17:35:10.714Z,41.94
2018-08-24T17:36:10.812Z,41.17
2018-08-24T17:37:10.977Z,41.05
2018-08-24T17:38:11.197Z,40.86
2018-08-24T17:39:11.198Z,40.76
2018-08-24T17:40:11.605Z,40.95
2018-08-24T17:41:11.789Z,40.95
2018-08-24T17:42:11.877Z,40.66
2018-08-24T17:43:12.926Z,40.76
2018-08-24T17:44:12.526Z,41.05
2018-08-24T17:45:12.318Z,41.53
2018-08-24T17:46:12.990Z,42.02
2018-08-24T17:47:12.688Z,41.24
2018-08-24T17:48:12.946Z,41.34
2018-08-24T17:49:13.094Z,41.05
2018-08-24T17:50:13.182Z,41.14
2018-08-24T17:51:13.418Z,41.05
2018-08-24T17:52:13.569Z,40.86
2018-08-24T17:53:13.859Z,40.76
2018-08-24T17:54:13.983Z,41.24
2018-08-24T17:55:14.238Z,41.14
2018-08-24T17:56:14.282Z,40.66
2018-08-24T17:57:14.510Z,40.84
2018-08-24T17:58:14.718Z,40.94
2018-08-24T17:59:14.818Z,41.80
2018-08-24T18:00:15.176Z,41.51
2018-08-24T18:01:15.188Z,41.32
2018-08-24T18:02:15.447Z,41.32
2018-08-24T18:03:15.592Z,41.32
2018-08-24T18:04:16.094Z,40.84
2018-08-24T18:05:15.939Z,40.55
2018-08-24T18:06:16.077Z,40.74
2018-08-24T18:07:16.418Z,40.72
2018-08-24T18:08:16.618Z,40.94
2018-08-24T18:09:16.609Z,40.43
2018-08-24T18:10:16.783Z,40.24
2018-08-24T18:11:17.146Z,40.43
2018-08-24T18:12:17.243Z,40.81
2018-08-24T18:13:17.429Z,40.14
2018-08-24T18:14:17.586Z,40.91
2018-08-24T18:15:18.160Z,40.72
2018-08-24T18:16:17.892Z,41.01
2018-08-24T18:17:18.167Z,40.81
2018-08-24T18:18:18.232Z,40.72
2018-08-24T18:19:18.676Z,40.05
2018-08-24T18:20:18.656Z,39.66
2018-08-24T18:21:19.013Z,40.34
2018-08-24T18:22:19.583Z,40.72
2018-08-24T18:23:19.423Z,40.70
2018-08-24T18:24:19.463Z,40.70
2018-08-24T18:25:20.432Z,40.12
2018-08-24T18:26:19.875Z,40.05
2018-08-24T18:27:20.397Z,39.95
2018-08-24T18:28:20.191Z,39.64
2018-08-24T18:29:20.277Z,39.54
2018-08-24T18:30:20.483Z,39.93
2018-08-24T18:31:20.655Z,40.22
2018-08-24T18:32:21.297Z,40.51
2018-08-24T18:33:21.632Z,40.12
2018-08-24T18:34:21.477Z,39.93
2018-08-24T18:35:21.749Z,39.45
2018-08-24T18:36:21.590Z,39.54
2018-08-24T18:37:22.032Z,39.36
2018-08-24T18:38:21.942Z,38.97
2018-08-24T18:39:22.070Z,39.83
2018-08-24T18:40:22.384Z,39.45
2018-08-24T18:41:22.480Z,40.03
2018-08-24T18:42:22.892Z,39.93
2018-08-24T18:43:23.088Z,40.12
2018-08-24T18:44:23.118Z,40.89
2018-08-24T18:45:23.492Z,40.22
2018-08-24T18:46:23.578Z,39.83
2018-08-24T18:47:23.725Z,39.45
2018-08-24T18:48:24.071Z,39.54
2018-08-24T18:49:24.107Z,39.36
2018-08-24T18:50:24.210Z,39.06
2018-08-24T18:51:24.346Z,39.54
2018-08-24T18:52:24.459Z,39.93
2018-08-24T18:53:24.720Z,40.22
2018-08-24T18:54:24.855Z,39.93
2018-08-24T18:55:24.825Z,40.03
2018-08-24T18:56:25.497Z,40.61
2018-08-24T18:57:25.275Z,40.70
2018-08-24T18:58:25.559Z,40.89
2018-08-24T18:59:25.543Z,41.56
2018-08-24T19:00:25.809Z,41.64
2018-08-24T19:01:26.242Z,41.06
2018-08-24T19:02:26.793Z,40.49
2018-08-24T19:03:26.769Z,40.01
2018-08-24T19:04:27.166Z,40.68
2018-08-24T19:05:27.153Z,40.68
2018-08-24T19:06:26.970Z,40.58
2018-08-24T19:07:27.293Z,40.68
2018-08-24T19:08:27.595Z,40.88
2018-08-24T19:09:27.581Z,40.68
2018-08-24T19:10:27.651Z,41.06
2018-08-24T19:11:27.779Z,41.06
2018-08-24T19:13:28.305Z,40.58
2018-08-24T19:14:28.548Z,41.45
2018-08-24T19:15:28.487Z,41.93
2018-08-24T19:16:28.583Z,42.22
2018-08-24T19:17:28.949Z,41.93
2018-08-24T19:18:28.974Z,41.45
2018-08-24T19:19:29.219Z,41.64
2018-08-24T19:20:29.462Z,42.03
2018-08-24T19:21:29.746Z,42.99
2018-08-24T19:22:29.907Z,43.66
2018-08-24T19:23:30.005Z,42.97
2018-08-24T19:24:30.075Z,42.39
2018-08-24T19:25:30.314Z,42.58
2018-08-24T19:26:30.699Z,43.54
2018-08-24T19:27:30.493Z,43.26
2018-08-24T19:28:30.800Z,42.97
2018-08-24T19:29:30.730Z,43.93
2018-08-24T19:30:31.093Z,44.31
2018-08-24T19:31:31.065Z,43.93
2018-08-24T19:32:31.241Z,44.41
2018-08-24T19:33:31.391Z,44.60
2018-08-24T19:34:31.561Z,44.89
2018-08-24T19:35:31.865Z,45.47
2018-08-24T19:36:32.160Z,44.70
2018-08-24T19:37:32.122Z,44.79
2018-08-24T19:38:32.345Z,45.37
2018-08-24T19:39:32.726Z,45.37
2018-08-24T19:40:32.675Z,45.95
2018-08-24T19:41:32.938Z,45.85
2018-08-24T19:42:33.313Z,46.91
2018-08-24T19:43:33.340Z,47.66
2018-08-24T19:44:33.452Z,48.61
2018-08-24T19:45:33.743Z,48.43